Coal Mine Mesa, Arizona
Current Conditions -  °F | °C
As of 7:54 AM on Thursday 30 Oct 2014 (Local Time) from KGCN Reporting Station
Clear Clear  
Wind Chill: 26°   Ceiling: Unl
Heat Index: 26°   Visibility: 10mi
Dew Point: 17°   Wind: 0mph
Humidity: 69%   Direction: NA
Pressure: 30.34"   Gusts: NA
Location:  35.9808°N, 111.359°W
Report Text: KGCN 301354Z 00000KT 10SM CLR M03/M08 A3034 RMK AO2 SLP270 T10331083
Loading
Personal Weather Stations






























Interactive Weather Map
Tropical Storm Tracking
New forecast layout! Learn more

10-Day Weather Forecast

Advertisements
Track Severe Weather on mobile